Time;durP1;ratioP1;P1;durP2;ratioP2;P2;SDS_P1;SDS_P2;PMS_P1;PMS_P2;Temp;Humidity;BMP_temperature;BMP_pressure;BME280_temperature;BME280_humidity;BME280_pressure;Samples;Min_cycle;Max_cycle;Signal;HPM_P1;HPM_P2
2022/06/26 00:00:26;;;;;;;10.60;9.07;;;17.70;99.90;;;;;;4774187;29;20111;-68
2022/06/26 00:02:51;;;;;;;10.60;8.20;;;17.60;99.90;;;;;;4795078;29;20438;-69
2022/06/26 00:05:17;;;;;;;9.27;8.48;;;17.60;99.90;;;;;;4790807;29;20119;-69
2022/06/26 00:07:42;;;;;;;9.23;8.32;;;17.60;99.90;;;;;;4805116;29;20112;-69
2022/06/26 00:10:08;;;;;;;9.07;8.13;;;17.50;99.90;;;;;;4807468;29;20059;-69
2022/06/26 00:12:34;;;;;;;11.43;10.23;;;17.60;99.90;;;;;;4806795;29;20094;-69
2022/06/26 00:15:01;;;;;;;11.05;10.00;;;17.50;99.90;;;;;;4787019;29;20038;-69
2022/06/26 00:17:26;;;;;;;11.73;9.52;;;17.60;99.90;;;;;;4786289;29;20043;-68
2022/06/26 00:19:53;;;;;;;10.65;9.55;;;17.50;99.90;;;;;;4807112;29;20118;-68
2022/06/26 00:22:19;;;;;;;11.60;9.90;;;17.50;99.90;;;;;;4806128;29;20095;-69
2022/06/26 00:24:45;;;;;;;10.63;9.35;;;17.50;99.90;;;;;;4804856;29;20051;-68
2022/06/26 00:27:11;;;;;;;9.75;8.70;;;17.50;99.90;;;;;;4789416;29;20043;-69
2022/06/26 00:29:36;;;;;;;9.90;8.90;;;17.50;99.90;;;;;;4806630;29;20105;-69
2022/06/26 00:32:04;;;;;;;11.68;9.05;;;17.50;99.90;;;;;;4804935;29;20126;-68
2022/06/26 00:34:29;;;;;;;10.43;9.40;;;17.50;99.90;;;;;;4789788;29;20046;-69
2022/06/26 00:36:55;;;;;;;10.20;9.20;;;17.50;99.90;;;;;;4805375;29;20385;-68
2022/06/26 00:39:21;;;;;;;10.20;9.20;;;17.50;99.90;;;;;;4789870;29;20055;-69
2022/06/26 00:41:47;;;;;;;10.95;8.23;;;17.60;99.90;;;;;;4807044;29;20050;-69
2022/06/26 00:44:18;;;;;;;8.95;8.15;;;17.60;99.90;;;;;;4805365;29;20053;-69
2022/06/26 00:46:44;;;;;;;11.30;8.80;;;17.60;99.90;;;;;;4787780;29;20061;-69
2022/06/26 00:49:11;;;;;;;10.02;9.05;;;17.60;99.90;;;;;;4792120;29;20063;-68
2022/06/26 00:51:40;;;;;;;8.45;7.75;;;17.60;99.90;;;;;;4771957;30;20055;-69
2022/06/26 00:54:07;;;;;;;9.80;8.88;;;17.60;99.90;;;;;;4788521;29;20059;-68
2022/06/26 00:56:34;;;;;;;9.40;8.50;;;17.70;99.90;;;;;;4786108;29;20055;-70
2022/06/26 00:59:00;;;;;;;10.40;9.40;;;17.70;99.90;;;;;;4778627;29;20051;-69
2022/06/26 01:01:26;;;;;;;9.50;8.48;;;17.70;99.90;;;;;;4790086;29;20046;-68
2022/06/26 01:03:52;;;;;;;10.65;9.55;;;17.70;99.90;;;;;;4803868;29;20066;-69
2022/06/26 01:06:18;;;;;;;11.38;10.23;;;17.70;99.90;;;;;;4781998;29;20082;-69
2022/06/26 01:08:43;;;;;;;13.48;11.27;;;17.80;99.90;;;;;;4774467;29;20050;-69
2022/06/26 01:11:20;;;;;;;13.52;12.23;;;17.70;99.90;;;;;;4806213;29;20115;-69
2022/06/26 01:13:48;;;;;;;14.50;12.23;;;17.80;99.90;;;;;;4803448;29;20086;-69
2022/06/26 01:16:16;;;;;;;13.68;12.32;;;17.70;99.90;;;;;;4794269;29;20055;-68
2022/06/26 01:18:43;;;;;;;13.70;12.40;;;17.80;99.90;;;;;;4803265;29;20480;-69
2022/06/26 01:21:09;;;;;;;13.88;12.50;;;17.80;99.90;;;;;;4804102;29;20051;-69
2022/06/26 01:23:34;;;;;;;12.75;11.55;;;17.90;99.90;;;;;;4804195;29;20484;-69
2022/06/26 01:26:00;;;;;;;13.70;12.40;;;17.90;99.90;;;;;;4802892;29;20559;-69
2022/06/26 01:28:26;;;;;;;13.75;12.35;;;18.00;99.90;;;;;;4788065;29;20051;-70
2022/06/26 01:30:51;;;;;;;14.45;12.95;;;18.00;99.90;;;;;;4798680;29;20422;-69
2022/06/26 01:33:17;;;;;;;13.90;12.38;;;18.10;99.90;;;;;;4787356;29;20404;-69
2022/06/26 01:35:43;;;;;;;13.45;12.25;;;18.10;99.90;;;;;;4788030;29;20081;-69
2022/06/26 01:38:14;;;;;;;14.35;13.00;;;18.20;99.90;;;;;;4771969;30;20055;-70
2022/06/26 01:40:41;;;;;;;13.98;11.60;;;18.10;99.90;;;;;;4775343;29;20053;-69
2022/06/26 01:43:08;;;;;;;13.65;12.18;;;18.20;99.90;;;;;;4805858;29;20059;-69
2022/06/26 01:45:33;;;;;;;15.05;12.25;;;18.20;99.90;;;;;;4788608;29;20061;-68
2022/06/26 01:47:59;;;;;;;13.13;11.80;;;18.20;99.90;;;;;;4788248;29;20054;-69
2022/06/26 01:50:25;;;;;;;14.30;12.90;;;18.20;99.90;;;;;;4789098;29;20054;-69
2022/06/26 01:52:50;;;;;;;13.88;12.45;;;18.20;99.90;;;;;;4805646;29;20088;-69
2022/06/26 01:55:16;;;;;;;13.45;12.13;;;18.20;99.90;;;;;;4803758;29;20046;-68
2022/06/26 01:57:41;;;;;;;12.75;11.45;;;18.30;99.90;;;;;;4786858;29;20047;-69
2022/06/26 02:00:08;;;;;;;12.20;11.00;;;18.20;99.90;;;;;;4805726;29;20126;-69
2022/06/26 02:02:33;;;;;;;13.48;12.07;;;18.30;99.90;;;;;;4797057;29;20051;-69
2022/06/26 02:04:59;;;;;;;13.82;12.10;;;18.30;99.90;;;;;;4784509;29;20051;-69
2022/06/26 02:07:25;;;;;;;16.05;12.05;;;18.20;99.90;;;;;;4805915;29;20047;-70
2022/06/26 02:15:19;;;;;;;15.45;13.85;;;18.20;99.90;;;;;;4804780;29;20043;-70
2022/06/26 02:17:45;;;;;;;16.50;13.15;;;18.10;99.90;;;;;;4792261;29;20074;-70
2022/06/26 02:20:12;;;;;;;15.88;14.18;;;18.00;99.90;;;;;;4791355;29;20058;-69
2022/06/26 02:22:37;;;;;;;15.52;13.82;;;18.00;99.90;;;;;;4807892;29;20062;-71
2022/06/26 02:25:04;;;;;;;15.20;13.65;;;18.00;99.90;;;;;;4808962;29;20365;-70
2022/06/26 02:27:29;;;;;;;14.73;13.32;;;18.00;99.90;;;;;;4808348;29;20055;-71
2022/06/26 02:29:55;;;;;;;18.83;14.55;;;17.90;99.90;;;;;;4792479;29;20054;-70
2022/06/26 02:32:21;;;;;;;16.17;13.70;;;17.90;99.90;;;;;;4805677;29;20050;-69
2022/06/26 02:34:46;;;;;;;14.07;12.77;;;17.90;99.90;;;;;;4808534;29;20058;-70
2022/06/26 02:37:12;;;;;;;16.75;13.65;;;17.90;99.90;;;;;;4808609;29;20054;-70
2022/06/26 02:39:37;;;;;;;16.83;13.93;;;17.80;99.90;;;;;;4792378;29;20169;-70
2022/06/26 02:42:03;;;;;;;13.65;12.27;;;17.80;99.90;;;;;;4791834;29;20095;-69
2022/06/26 02:44:30;;;;;;;15.77;13.80;;;17.80;99.90;;;;;;4806903;29;20055;-69
2022/06/26 02:46:55;;;;;;;14.77;12.93;;;17.80;99.90;;;;;;4791010;29;20050;-70
2022/06/26 02:49:21;;;;;;;12.70;11.18;;;17.80;99.90;;;;;;4808858;29;20069;-69
2022/06/26 02:51:46;;;;;;;12.50;11.00;;;17.70;99.90;;;;;;4791450;29;20073;-69
2022/06/26 02:54:13;;;;;;;12.85;11.52;;;17.60;99.90;;;;;;4792283;29;20054;-69
2022/06/26 02:56:38;;;;;;;12.30;10.85;;;17.60;99.90;;;;;;4806217;29;20122;-68
2022/06/26 02:59:04;;;;;;;12.18;10.98;;;17.60;99.90;;;;;;4807916;29;20138;-69
2022/06/26 03:01:29;;;;;;;12.75;11.05;;;17.60;99.90;;;;;;4803945;29;20133;-69
2022/06/26 03:03:55;;;;;;;13.10;11.25;;;17.50;99.90;;;;;;4792263;29;20100;-69
2022/06/26 03:06:21;;;;;;;12.13;10.85;;;17.50;99.90;;;;;;4792262;29;20085;-68
2022/06/26 03:08:46;;;;;;;13.27;11.02;;;17.50;99.90;;;;;;4790772;29;20082;-70
2022/06/26 03:11:12;;;;;;;10.25;9.25;;;17.50;99.90;;;;;;4781466;29;20457;-70
2022/06/26 03:13:37;;;;;;;10.43;9.40;;;17.50;99.90;;;;;;4808409;29;20055;-70
2022/06/26 03:16:03;;;;;;;10.75;9.50;;;17.50;99.90;;;;;;4807203;29;20095;-70
2022/06/26 03:18:29;;;;;;;9.98;8.98;;;17.40;99.90;;;;;;4790720;29;20051;-69
2022/06/26 03:20:55;;;;;;;9.65;8.57;;;17.30;99.90;;;;;;4806806;29;20086;-70
2022/06/26 03:23:21;;;;;;;10.23;8.73;;;17.30;99.90;;;;;;4806579;29;20083;-70
2022/06/26 03:25:46;;;;;;;9.77;8.68;;;17.20;99.90;;;;;;4807883;29;20050;-70
2022/06/26 03:28:12;;;;;;;9.93;7.82;;;17.20;99.90;;;;;;4805129;29;20179;-69
2022/06/26 03:30:37;;;;;;;8.10;7.32;;;17.20;99.90;;;;;;4788636;29;20094;-68
2022/06/26 03:33:03;;;;;;;8.25;7.45;;;17.20;99.90;;;;;;4791340;29;20090;-69
2022/06/26 03:35:29;;;;;;;8.18;7.38;;;17.20;99.90;;;;;;4782280;30;20138;-68
2022/06/26 03:37:55;;;;;;;7.95;6.82;;;17.10;99.90;;;;;;4793220;29;20050;-68
2022/06/26 03:40:20;;;;;;;7.38;6.68;;;17.10;99.90;;;;;;4807205;29;20054;-68
2022/06/26 03:42:47;;;;;;;8.18;6.43;;;17.10;99.90;;;;;;4807247;29;20051;-68
2022/06/26 03:45:13;;;;;;;7.13;6.43;;;17.10;99.90;;;;;;4807642;29;20556;-70
2022/06/26 03:47:39;;;;;;;7.97;6.47;;;17.10;99.90;;;;;;4806957;29;20130;-69
2022/06/26 03:50:06;;;;;;;8.35;6.40;;;17.00;99.90;;;;;;4790444;29;20499;-68
2022/06/26 03:52:31;;;;;;;7.82;6.28;;;17.00;99.90;;;;;;4806385;29;20055;-69
2022/06/26 03:54:57;;;;;;;9.75;6.45;;;17.00;99.90;;;;;;4791953;29;20144;-70
2022/06/26 03:57:23;;;;;;;6.53;5.93;;;17.00;99.90;;;;;;4791255;29;20080;-69
2022/06/26 03:59:48;;;;;;;7.07;6.00;;;17.00;99.90;;;;;;4789956;29;20082;-70
2022/06/26 04:02:14;;;;;;;7.90;6.45;;;17.00;99.90;;;;;;4790208;29;20491;-68
2022/06/26 04:04:39;;;;;;;7.88;5.95;;;16.90;99.90;;;;;;4790879;29;20100;-70
2022/06/26 04:07:05;;;;;;;6.35;5.60;;;16.90;99.90;;;;;;4805731;29;20046;-69
2022/06/26 04:09:31;;;;;;;6.38;5.63;;;16.90;99.90;;;;;;4790780;29;20070;-67
2022/06/26 04:11:56;;;;;;;8.38;6.07;;;16.90;99.90;;;;;;4806809;29;20120;-67
2022/06/26 04:14:22;;;;;;;6.57;5.97;;;16.80;99.90;;;;;;4790006;29;20050;-69
2022/06/26 04:16:47;;;;;;;6.30;5.70;;;16.90;99.90;;;;;;4798623;29;20070;-69
2022/06/26 04:19:13;;;;;;;7.05;5.10;;;16.80;99.90;;;;;;4786783;29;20043;-69
2022/06/26 04:21:39;;;;;;;5.80;5.13;;;16.80;99.90;;;;;;4801397;29;20484;-69
2022/06/26 04:24:05;;;;;;;6.25;5.25;;;17.00;99.90;;;;;;4783112;29;20374;-69
2022/06/26 04:26:30;;;;;;;8.57;5.70;;;16.80;99.90;;;;;;4801047;29;20366;-70
2022/06/26 04:28:56;;;;;;;6.35;5.63;;;16.80;99.90;;;;;;4801530;29;20054;-67
2022/06/26 04:31:21;;;;;;;5.80;4.22;;;16.70;99.90;;;;;;4779683;29;20058;-70
2022/06/26 04:33:47;;;;;;;6.75;4.60;;;16.80;99.90;;;;;;4785107;29;20062;-68
2022/06/26 04:36:13;;;;;;;5.55;4.78;;;16.70;99.90;;;;;;4802069;29;20552;-69
2022/06/26 04:38:38;;;;;;;5.13;4.63;;;16.80;99.90;;;;;;4804716;29;20054;-68
2022/06/26 04:41:31;;;;;;;4.90;4.40;;;16.70;99.90;;;;;;4804889;29;20047;-70
2022/06/26 04:43:49;;;;;;;8.25;5.05;;;16.70;99.90;;;;;;4783811;29;20473;-68
2022/06/26 04:46:15;;;;;;;5.32;4.63;;;16.80;99.90;;;;;;4788161;29;20046;-70
2022/06/26 04:48:40;;;;;;;6.15;4.82;;;16.80;99.90;;;;;;4784831;29;20205;-68
2022/06/26 04:51:06;;;;;;;5.57;5.10;;;16.80;99.90;;;;;;4798806;29;20039;-67
2022/06/26 04:53:31;;;;;;;5.15;4.65;;;16.80;99.90;;;;;;4786023;29;20102;-69
2022/06/26 04:55:57;;;;;;;6.28;5.68;;;16.90;99.90;;;;;;4796128;29;20061;-68
2022/06/26 04:58:22;;;;;;;7.95;5.32;;;17.10;99.90;;;;;;4797961;29;20051;-68
2022/06/26 05:00:48;;;;;;;5.85;5.30;;;17.00;99.90;;;;;;4797330;29;20477;-70
2022/06/26 05:03:14;;;;;;;6.55;5.45;;;17.20;99.90;;;;;;4787280;29;20481;-70
2022/06/26 05:05:39;;;;;;;6.32;5.72;;;17.30;99.90;;;;;;4803456;29;20497;-70
2022/06/26 05:08:05;;;;;;;6.03;5.30;;;17.40;99.90;;;;;;4800919;29;20069;-70
2022/06/26 05:10:30;;;;;;;7.47;5.38;;;17.60;99.90;;;;;;4801714;29;20058;-70
2022/06/26 05:12:56;;;;;;;6.28;4.80;;;17.70;99.90;;;;;;4796493;29;20397;-70
2022/06/26 05:15:22;;;;;;;6.63;5.75;;;17.90;99.90;;;;;;4781737;29;20098;-69
2022/06/26 05:17:47;;;;;;;6.63;5.03;;;18.00;99.90;;;;;;4794310;29;20039;-70
2022/06/26 05:20:13;;;;;;;5.30;4.85;;;18.20;99.90;;;;;;4779171;30;20043;-68
2022/06/26 05:22:40;;;;;;;6.80;5.22;;;18.40;99.90;;;;;;4802029;29;20477;-69
2022/06/26 05:25:05;;;;;;;5.95;5.28;;;18.40;99.90;;;;;;4802379;29;20053;-69
2022/06/26 05:27:31;;;;;;;6.35;5.68;;;18.30;99.90;;;;;;4802917;29;20054;-69
2022/06/26 05:29:56;;;;;;;6.57;5.97;;;18.20;99.90;;;;;;4793979;29;20369;-70
2022/06/26 05:32:22;;;;;;;7.30;6.60;;;18.10;99.90;;;;;;4792014;29;20146;-69
2022/06/26 05:34:51;;;;;;;8.10;7.25;;;18.10;99.90;;;;;;4779079;29;20059;-70
2022/06/26 05:37:16;;;;;;;9.13;7.55;;;18.00;99.90;;;;;;4795790;29;20076;-68
2022/06/26 05:39:42;;;;;;;8.95;8.15;;;18.00;99.90;;;;;;4797022;29;20054;-68
2022/06/26 05:42:08;;;;;;;10.80;8.38;;;18.00;99.90;;;;;;4787484;29;20058;-70
2022/06/26 05:44:33;;;;;;;10.73;9.00;;;17.90;99.90;;;;;;4787252;29;20082;-69
2022/06/26 05:47:00;;;;;;;11.13;8.82;;;17.90;99.90;;;;;;4772501;29;20376;-68
2022/06/26 05:49:27;;;;;;;10.52;9.40;;;17.80;99.90;;;;;;4805044;29;20055;-69
2022/06/26 05:51:53;;;;;;;10.57;9.48;;;17.80;99.90;;;;;;4796331;29;20129;-68
2022/06/26 05:54:20;;;;;;;10.02;9.13;;;17.80;99.90;;;;;;4796429;29;20130;-69
2022/06/26 05:56:46;;;;;;;11.90;9.25;;;17.80;99.90;;;;;;4786394;29;20129;-71
2022/06/26 05:59:11;;;;;;;10.63;9.65;;;17.80;99.90;;;;;;4786462;29;20051;-70
2022/06/26 06:01:40;;;;;;;9.75;8.85;;;17.80;99.90;;;;;;4761613;29;20078;-70
2022/06/26 06:04:12;;;;;;;10.35;9.45;;;17.90;99.90;;;;;;4778173;29;20103;-69
2022/06/26 06:06:45;;;;;;;10.32;9.27;;;18.00;99.90;;;;;;4795748;29;20150;-70
2022/06/26 06:09:15;;;;;;;10.45;9.40;;;18.00;99.90;;;;;;4782836;29;20061;-69
2022/06/26 06:11:41;;;;;;;10.05;9.05;;;18.10;99.90;;;;;;4771348;29;20793;-69
2022/06/26 06:14:07;;;;;;;9.60;8.70;;;18.30;99.90;;;;;;4782392;29;21622;-69
2022/06/26 06:16:33;;;;;;;9.77;8.80;;;18.50;99.90;;;;;;4780264;29;20089;-70
2022/06/26 06:18:59;;;;;;;9.07;8.27;;;18.60;99.90;;;;;;4782881;29;20042;-69
2022/06/26 06:21:24;;;;;;;10.02;9.13;;;18.90;99.90;;;;;;4785235;29;20054;-69
2022/06/26 06:23:50;;;;;;;10.68;9.57;;;19.20;99.90;;;;;;4786578;29;20506;-70
2022/06/26 06:26:15;;;;;;;10.77;9.68;;;19.30;99.90;;;;;;4785523;29;20093;-70
2022/06/26 06:28:41;;;;;;;11.35;9.60;;;19.30;99.90;;;;;;4787270;29;20046;-69
2022/06/26 06:31:07;;;;;;;10.32;9.25;;;19.20;99.90;;;;;;4785041;29;20066;-70
2022/06/26 06:33:32;;;;;;;10.95;9.85;;;19.20;99.90;;;;;;4781865;29;20075;-70
2022/06/26 06:35:58;;;;;;;11.32;10.05;;;19.20;99.90;;;;;;4780416;29;20051;-69
2022/06/26 06:38:25;;;;;;;12.00;10.43;;;19.10;99.90;;;;;;4777905;29;20078;-70
2022/06/26 06:40:51;;;;;;;11.63;10.52;;;19.20;99.90;;;;;;4781424;29;20055;-69
2022/06/26 06:43:16;;;;;;;11.35;10.15;;;19.10;99.90;;;;;;4785797;29;20058;-68
2022/06/26 06:45:42;;;;;;;10.25;9.20;;;19.20;99.90;;;;;;4787996;29;20053;-69
2022/06/26 06:48:08;;;;;;;11.55;10.32;;;19.10;99.90;;;;;;4786718;29;20458;-71
2022/06/26 06:50:34;;;;;;;10.27;9.38;;;19.10;99.90;;;;;;4801402;29;20565;-70
2022/06/26 06:53:00;;;;;;;10.65;9.55;;;19.20;99.90;;;;;;4802831;29;20401;-71
2022/06/26 06:55:26;;;;;;;12.23;11.13;;;19.20;99.90;;;;;;4802816;29;20050;-70
2022/06/26 06:57:52;;;;;;;11.77;10.57;;;19.30;99.90;;;;;;4803244;29;20508;-69
2022/06/26 07:00:18;;;;;;;12.15;10.95;;;19.40;99.90;;;;;;4785081;29;20058;-70
2022/06/26 07:02:43;;;;;;;12.90;11.75;;;19.50;99.90;;;;;;4781794;29;20050;-71
2022/06/26 07:05:09;;;;;;;12.20;11.10;;;19.60;99.90;;;;;;4797464;29;20054;-70
2022/06/26 07:07:36;;;;;;;12.60;11.50;;;19.70;99.90;;;;;;4782611;29;20067;-70
2022/06/26 07:10:03;;;;;;;12.52;11.32;;;19.90;99.90;;;;;;4786482;29;20051;-69
2022/06/26 07:12:29;;;;;;;14.13;12.77;;;20.10;99.90;;;;;;4782107;29;20058;-69
2022/06/26 07:14:54;;;;;;;13.75;12.40;;;20.20;99.90;;;;;;4804576;29;20051;-68
2022/06/26 07:17:22;;;;;;;13.77;12.57;;;20.20;99.90;;;;;;4784639;29;20127;-70
2022/06/26 07:19:48;;;;;;;15.30;13.80;;;20.10;99.90;;;;;;4789662;29;20485;-69
2022/06/26 07:22:13;;;;;;;15.73;14.20;;;20.10;99.90;;;;;;4787203;29;20126;-70
2022/06/26 07:24:39;;;;;;;15.68;13.80;;;20.00;99.90;;;;;;4783643;29;20404;-69
2022/06/26 07:27:06;;;;;;;16.02;14.43;;;20.10;99.90;;;;;;4801640;29;20129;-70
2022/06/26 07:29:32;;;;;;;16.77;15.07;;;20.20;99.90;;;;;;4790013;29;20059;-70
2022/06/26 07:31:57;;;;;;;16.38;14.88;;;20.20;99.90;;;;;;4804621;29;20065;-69
2022/06/26 07:34:24;;;;;;;16.80;15.23;;;20.30;99.90;;;;;;4805236;29;20088;-70
2022/06/26 07:36:50;;;;;;;17.50;15.93;;;20.40;99.90;;;;;;4806251;29;20053;-69
2022/06/26 07:39:19;;;;;;;17.15;15.55;;;20.50;99.90;;;;;;4788560;29;20089;-69
2022/06/26 07:41:46;;;;;;;15.38;13.93;;;20.50;99.90;;;;;;4789640;29;20062;-70
2022/06/26 07:44:12;;;;;;;16.75;15.13;;;20.60;99.90;;;;;;4786171;29;20108;-70
2022/06/26 07:46:39;;;;;;;17.33;15.73;;;20.90;99.90;;;;;;4783595;29;20046;-70
2022/06/26 07:49:06;;;;;;;16.67;15.18;;;21.10;99.90;;;;;;4799831;29;20378;-70
2022/06/26 07:51:33;;;;;;;16.25;14.65;;;21.30;99.90;;;;;;4799650;29;20057;-70
2022/06/26 07:53:59;;;;;;;14.98;13.48;;;21.30;99.90;;;;;;4802800;29;20090;-70
2022/06/26 07:56:25;;;;;;;15.10;13.70;;;21.40;99.90;;;;;;4788716;29;20086;-69
2022/06/26 07:58:55;;;;;;;15.05;13.60;;;21.10;99.90;;;;;;4805292;29;20053;-70
2022/06/26 08:01:21;;;;;;;13.95;12.55;;;20.90;99.90;;;;;;4804929;29;20107;-70
2022/06/26 08:03:47;;;;;;;14.20;12.85;;;20.70;99.90;;;;;;4786900;29;20446;-68
2022/06/26 08:06:13;;;;;;;13.68;12.38;;;20.50;99.90;;;;;;4775650;29;20062;-70
2022/06/26 08:08:39;;;;;;;14.68;13.18;;;20.40;99.90;;;;;;4789361;29;20488;-68
2022/06/26 08:11:04;;;;;;;13.95;12.45;;;20.30;99.90;;;;;;4804063;29;20154;-69
2022/06/26 08:13:30;;;;;;;13.00;11.77;;;20.30;99.90;;;;;;4806969;29;20425;-69
2022/06/26 08:15:56;;;;;;;12.02;10.73;;;20.40;99.90;;;;;;4790689;29;20050;-68
2022/06/26 08:18:21;;;;;;;12.05;10.85;;;20.40;99.90;;;;;;4790638;29;20053;-70
2022/06/26 08:20:47;;;;;;;10.55;9.52;;;20.50;99.90;;;;;;4787192;29;20386;-70
2022/06/26 08:23:13;;;;;;;10.57;9.52;;;20.70;99.90;;;;;;4797740;29;20067;-69
2022/06/26 08:25:39;;;;;;;11.15;10.00;;;21.10;99.90;;;;;;4782175;29;20349;-70
2022/06/26 08:28:06;;;;;;;11.85;10.40;;;21.50;99.90;;;;;;4781787;29;20482;-68
2022/06/26 08:30:32;;;;;;;12.18;10.57;;;21.90;99.90;;;;;;4788791;29;20157;-69
2022/06/26 08:32:58;;;;;;;10.25;9.10;;;22.20;99.90;;;;;;4782430;29;20088;-69
2022/06/26 08:35:28;;;;;;;8.07;7.30;;;22.30;99.90;;;;;;4785208;29;20135;-69
2022/06/26 08:37:54;;;;;;;8.88;7.28;;;22.30;99.90;;;;;;4801604;29;20188;-70
2022/06/26 08:40:20;;;;;;;7.10;6.40;;;22.40;99.90;;;;;;4803518;29;20133;-69
2022/06/26 08:42:52;;;;;;;6.70;6.07;;;22.40;99.90;;;;;;4805042;29;20172;-70
2022/06/26 08:45:22;;;;;;;;;;;22.50;99.90;;;;;;4803541;29;20051;-69
2022/06/26 08:47:52;;;;;;;5.45;4.88;;;22.40;99.90;;;;;;4788714;29;19921;-69
2022/06/26 08:50:20;;;;;;;6.18;5.50;;;22.20;99.90;;;;;;4787903;29;20398;-70
2022/06/26 08:52:46;;;;;;;5.43;4.72;;;22.20;99.90;;;;;;4788986;29;20384;-68
2022/06/26 08:55:12;;;;;;;5.10;4.60;;;22.00;99.90;;;;;;4787073;29;20051;-70
2022/06/26 08:57:38;;;;;;;4.70;4.30;;;21.80;99.90;;;;;;4773900;29;20188;-69
2022/06/26 09:00:04;;;;;;;4.55;3.75;;;21.70;99.90;;;;;;4788538;29;20050;-69
2022/06/26 09:02:30;;;;;;;4.40;3.20;;;21.60;99.90;;;;;;4787280;29;20077;-69
2022/06/26 09:04:56;;;;;;;4.05;3.65;;;21.70;99.90;;;;;;4787742;29;20047;-70
2022/06/26 09:07:22;;;;;;;3.75;3.45;;;21.90;99.90;;;;;;4787984;29;20051;-68
2022/06/26 09:09:48;;;;;;;4.05;3.65;;;22.40;99.90;;;;;;4804441;29;20523;-69
2022/06/26 09:12:13;;;;;;;4.72;3.50;;;22.30;99.90;;;;;;4787637;29;20058;-69
2022/06/26 09:14:39;;;;;;;5.22;4.18;;;22.50;99.90;;;;;;4782290;29;20059;-70
2022/06/26 09:17:05;;;;;;;7.05;5.20;;;22.60;99.90;;;;;;4782020;29;20051;-69
2022/06/26 09:19:33;;;;;;;6.55;4.53;;;22.70;99.90;;;;;;4795375;29;20080;-69
2022/06/26 09:22:16;;;;;;;4.45;3.65;;;22.80;99.90;;;;;;4783486;29;20086;-69
2022/06/26 09:24:56;;;;;;;4.63;3.13;;;22.90;99.90;;;;;;4780283;29;20058;-70
2022/06/26 09:27:22;;;;;;;3.90;3.60;;;22.90;99.90;;;;;;4782452;29;20116;-70
2022/06/26 09:29:53;;;;;;;4.07;3.30;;;22.70;99.90;;;;;;4793155;29;20083;-69
2022/06/26 09:32:21;;;;;;;5.03;2.88;;;22.60;99.90;;;;;;4782394;29;20134;-69
2022/06/26 09:34:52;;;;;;;3.10;2.13;;;22.60;99.90;;;;;;4778555;29;20465;-70
2022/06/26 09:37:22;;;;;;;4.00;2.00;;;22.60;99.90;;;;;;4775844;29;20055;-71
2022/06/26 09:39:48;;;;;;;3.15;2.70;;;22.70;99.90;;;;;;4794099;29;20359;-71
2022/06/26 09:42:19;;;;;;;3.70;3.35;;;22.60;99.90;;;;;;4779053;29;20390;-69
2022/06/26 09:44:53;;;;;;;3.22;2.85;;;22.60;99.90;;;;;;4783800;29;20051;-70
2022/06/26 09:47:29;;;;;;;4.68;2.92;;;22.90;99.90;;;;;;4798868;29;20095;-69
2022/06/26 09:50:00;;;;;;;4.38;3.22;;;22.90;99.90;;;;;;4777087;29;20047;-70
2022/06/26 09:52:28;;;;;;;4.03;2.70;;;23.00;99.90;;;;;;4778746;29;20050;-72
2022/06/26 09:54:55;;;;;;;2.95;2.65;;;22.90;99.90;;;;;;4801240;29;20461;-70
2022/06/26 09:57:22;;;;;;;5.05;3.30;;;22.60;99.90;;;;;;4788200;29;20050;-70
2022/06/26 09:59:48;;;;;;;4.07;2.65;;;22.50;99.90;;;;;;4797490;29;20062;-70
2022/06/26 10:07:52;;;;;;;4.10;2.38;;;22.20;99.90;;;;;;4777558;29;20051;-69
2022/06/26 10:10:21;;;;;;;3.97;2.80;;;22.20;99.90;;;;;;4800602;29;20107;-69
2022/06/26 10:12:56;;;;;;;4.20;2.70;;;22.40;99.90;;;;;;4785511;29;20047;-67
2022/06/26 10:15:26;;;;;;;5.18;3.00;;;22.70;99.90;;;;;;4802181;29;20104;-68
2022/06/26 10:18:24;;;;;;;4.80;3.42;;;22.90;99.90;;;;;;4790495;29;20054;-69
2022/06/26 10:20:52;;;;;;;5.15;3.63;;;23.20;99.90;;;;;;4800659;29;20113;-69
2022/06/26 10:23:32;;;;;;;3.75;3.08;;;23.40;99.90;;;;;;4776347;29;20100;-67
2022/06/26 10:25:57;;;;;;;4.10;2.70;;;23.40;99.90;;;;;;4776856;29;20051;-68
2022/06/26 10:28:23;;;;;;;4.88;2.90;;;23.30;99.90;;;;;;4798179;29;20043;-70
2022/06/26 10:30:48;;;;;;;7.38;2.60;;;23.30;99.90;;;;;;4797401;29;20059;-67
2022/06/26 10:33:15;;;;;;;3.78;2.80;;;23.20;99.90;;;;;;4791582;29;20058;-68
2022/06/26 10:35:47;;;;;;;3.50;2.45;;;23.10;99.90;;;;;;4775794;29;20381;-69
2022/06/26 10:38:21;;;;;;;2.40;2.20;;;22.90;99.90;;;;;;4796956;29;20433;-68
2022/06/26 10:43:49;;;;;;;5.43;2.70;;;22.70;99.90;;;;;;4799267;29;20051;-68
2022/06/26 10:46:15;;;;;;;3.42;2.92;;;22.60;99.90;;;;;;4784566;29;20083;-68
2022/06/26 10:48:50;;;;;;;5.00;2.78;;;22.70;99.90;;;;;;4798626;29;20090;-70
2022/06/26 10:51:27;;;;;;;4.18;2.65;;;22.60;99.90;;;;;;4781906;29;20098;-68
2022/06/26 10:53:53;;;;;;;5.05;2.42;;;22.70;99.90;;;;;;4768068;29;20043;-68
2022/06/26 10:56:19;;;;;;;2.58;2.20;;;22.90;99.90;;;;;;4781752;29;20051;-70
2022/06/26 10:58:46;;;;;;;4.80;2.60;;;22.70;99.90;;;;;;4783433;29;20046;-68
2022/06/26 11:01:13;;;;;;;2.85;2.65;;;22.70;99.90;;;;;;4801077;29;20111;-69
2022/06/26 11:03:39;;;;;;;3.92;3.10;;;22.80;99.90;;;;;;4782855;29;20065;-70
2022/06/26 11:06:14;;;;;;;3.15;2.80;;;22.90;99.90;;;;;;4798031;29;20444;-70
2022/06/26 11:08:49;;;;;;;4.00;2.63;;;22.90;99.90;;;;;;4799811;29;20046;-69
2022/06/26 11:11:27;;;;;;;4.43;2.80;;;23.00;99.90;;;;;;4799053;29;20129;-68
2022/06/26 11:13:58;;;;;;;4.25;2.83;;;23.20;99.90;;;;;;4795158;29;20051;-68
2022/06/26 11:16:44;;;;;;;4.43;2.90;;;23.20;99.90;;;;;;4785499;29;20118;-70
2022/06/26 11:19:30;;;;;;;4.82;3.58;;;23.20;99.90;;;;;;4785171;29;20070;-69
2022/06/26 11:22:07;;;;;;;3.88;3.17;;;23.20;99.90;;;;;;4783043;29;20075;-69
2022/06/26 11:24:33;;;;;;;3.35;2.72;;;23.30;99.90;;;;;;4784870;29;20094;-68
2022/06/26 11:26:59;;;;;;;6.18;2.55;;;23.30;99.90;;;;;;4802962;29;20079;-69
2022/06/26 11:29:25;;;;;;;5.10;3.20;;;23.40;99.90;;;;;;4784891;29;20078;-68
2022/06/26 11:31:51;;;;;;;3.22;2.88;;;23.40;99.90;;;;;;4793162;29;20126;-67
2022/06/26 11:34:17;;;;;;;3.80;2.88;;;23.50;99.90;;;;;;4805769;29;20057;-68
2022/06/26 11:36:55;;;;;;;2.97;2.70;;;23.50;99.90;;;;;;4787102;29;20106;-68
2022/06/26 11:39:21;;;;;;;4.28;2.83;;;23.60;99.90;;;;;;4783580;29;20050;-67
2022/06/26 11:41:47;;;;;;;3.47;2.80;;;23.60;99.90;;;;;;4798248;29;20055;-68
2022/06/26 11:44:13;;;;;;;4.80;2.90;;;23.60;99.90;;;;;;4785991;29;20116;-68
2022/06/26 11:46:40;;;;;;;5.40;3.00;;;23.60;99.90;;;;;;4785187;29;20071;-68
2022/06/26 11:49:09;;;;;;;4.15;2.55;;;23.60;99.90;;;;;;4800887;29;20431;-70
2022/06/26 11:51:35;;;;;;;3.45;2.40;;;23.60;99.90;;;;;;4799598;29;20054;-69
2022/06/26 11:54:00;;;;;;;5.45;2.45;;;23.60;99.90;;;;;;4783764;29;20055;-68
2022/06/26 11:56:29;;;;;;;3.67;2.38;;;23.70;99.90;;;;;;4786492;29;20120;-68
2022/06/26 11:58:56;;;;;;;4.00;2.72;;;23.80;99.90;;;;;;4786445;29;20043;-71
2022/06/26 12:01:30;;;;;;;3.40;2.60;;;23.70;99.90;;;;;;4786015;29;20047;-68
2022/06/26 12:03:56;;;;;;;4.22;2.60;;;23.80;99.90;;;;;;4799879;29;20054;-67
2022/06/26 12:06:35;;;;;;;3.95;2.80;;;23.60;99.90;;;;;;4797806;29;20051;-69
2022/06/26 12:09:23;;;;;;;3.67;2.70;;;23.70;99.90;;;;;;4795285;29;20093;-68
2022/06/26 12:11:51;;;;;;;5.00;3.35;;;23.70;99.90;;;;;;4778048;29;20063;-69
2022/06/26 12:14:19;;;;;;;3.58;3.17;;;23.80;99.90;;;;;;4796972;29;20113;-69
2022/06/26 12:16:53;;;;;;;5.35;3.17;;;23.80;99.90;;;;;;4804273;29;20059;-69
2022/06/26 12:19:19;;;;;;;3.95;3.10;;;23.80;99.90;;;;;;4797838;29;20084;-70
2022/06/26 12:21:47;;;;;;;4.28;3.30;;;23.70;99.90;;;;;;4779293;29;20071;-69
2022/06/26 12:24:14;;;;;;;3.85;2.63;;;23.80;99.90;;;;;;4799238;29;20055;-70
2022/06/26 12:26:41;;;;;;;5.25;2.83;;;23.70;99.90;;;;;;4786146;29;20111;-68
2022/06/26 12:29:11;;;;;;;3.65;2.67;;;23.70;99.90;;;;;;4781317;29;20066;-69
2022/06/26 12:31:38;;;;;;;3.75;2.90;;;23.70;99.90;;;;;;4782851;29;20066;-69
2022/06/26 12:34:04;;;;;;;5.07;2.95;;;23.70;99.90;;;;;;4788156;29;20059;-70
2022/06/26 12:36:31;;;;;;;4.15;3.10;;;23.80;99.90;;;;;;4804493;29;20059;-70
2022/06/26 12:38:57;;;;;;;3.90;2.53;;;23.70;99.90;;;;;;4788879;29;20057;-68
2022/06/26 12:41:23;;;;;;;3.83;2.75;;;23.50;99.90;;;;;;4802159;29;20138;-70
2022/06/26 12:43:55;;;;;;;3.15;2.08;;;23.50;99.90;;;;;;4796084;29;20047;-69
2022/06/26 12:46:21;;;;;;;3.60;2.58;;;23.30;99.90;;;;;;4801759;29;20043;-70
2022/06/26 12:48:47;;;;;;;3.75;2.45;;;23.20;99.90;;;;;;4780058;30;20047;-69
2022/06/26 12:51:14;;;;;;;3.00;2.35;;;23.10;99.90;;;;;;4801883;29;20548;-70
2022/06/26 12:53:41;;;;;;;2.35;2.05;;;23.10;99.90;;;;;;4800706;29;20126;-69